sensor_id;sensor_type;location;lat;lon;timestamp;P1;durP1;ratioP1;P2;durP2;ratioP2
2720;SDS011;1368;49.484;11.112;2023-08-24T00:00:40;13.13;;;10.83;;
2720;SDS011;1368;49.484;11.112;2023-08-24T00:03:06;13.73;;;11.60;;
2720;SDS011;1368;49.484;11.112;2023-08-24T00:05:33;12.60;;;10.37;;
2720;SDS011;1368;49.484;11.112;2023-08-24T00:08:01;13.23;;;11.20;;
2720;SDS011;1368;49.484;11.112;2023-08-24T00:10:28;14.80;;;11.80;;
2720;SDS011;1368;49.484;11.112;2023-08-24T00:12:54;16.90;;;11.20;;
2720;SDS011;1368;49.484;11.112;2023-08-24T00:15:19;12.67;;;11.37;;
2720;SDS011;1368;49.484;11.112;2023-08-24T00:17:45;11.43;;;10.33;;
2720;SDS011;1368;49.484;11.112;2023-08-24T00:20:10;12.47;;;11.27;;
2720;SDS011;1368;49.484;11.112;2023-08-24T00:22:37;16.30;;;11.90;;
2720;SDS011;1368;49.484;11.112;2023-08-24T00:25:04;12.93;;;11.73;;
2720;SDS011;1368;49.484;11.112;2023-08-24T00:27:31;12.87;;;11.70;;
2720;SDS011;1368;49.484;11.112;2023-08-24T00:29:57;16.23;;;11.50;;
2720;SDS011;1368;49.484;11.112;2023-08-24T00:32:23;13.40;;;12.00;;
2720;SDS011;1368;49.484;11.112;2023-08-24T00:34:48;15.30;;;11.77;;
2720;SDS011;1368;49.484;11.112;2023-08-24T00:37:14;13.10;;;11.03;;
2720;SDS011;1368;49.484;11.112;2023-08-24T00:39:40;12.60;;;11.30;;
2720;SDS011;1368;49.484;11.112;2023-08-24T00:42:06;20.07;;;13.10;;
2720;SDS011;1368;49.484;11.112;2023-08-24T00:44:32;14.20;;;12.70;;
2720;SDS011;1368;49.484;11.112;2023-08-24T00:46:58;15.70;;;12.00;;
2720;SDS011;1368;49.484;11.112;2023-08-24T00:49:25;13.87;;;12.33;;
2720;SDS011;1368;49.484;11.112;2023-08-24T00:51:51;14.37;;;12.93;;
2720;SDS011;1368;49.484;11.112;2023-08-24T00:54:17;15.83;;;13.13;;
2720;SDS011;1368;49.484;11.112;2023-08-24T00:56:43;15.17;;;13.10;;
2720;SDS011;1368;49.484;11.112;2023-08-24T00:59:09;16.20;;;12.30;;
2720;SDS011;1368;49.484;11.112;2023-08-24T01:01:35;14.47;;;12.83;;
2720;SDS011;1368;49.484;11.112;2023-08-24T01:04:00;13.30;;;12.00;;
2720;SDS011;1368;49.484;11.112;2023-08-24T01:06:27;15.17;;;13.47;;
2720;SDS011;1368;49.484;11.112;2023-08-24T01:08:53;14.83;;;13.33;;
2720;SDS011;1368;49.484;11.112;2023-08-24T01:13:59;16.03;;;14.10;;
2720;SDS011;1368;49.484;11.112;2023-08-24T01:16:45;15.00;;;13.50;;
2720;SDS011;1368;49.484;11.112;2023-08-24T01:19:21;13.23;;;12.03;;
2720;SDS011;1368;49.484;11.112;2023-08-24T01:22:01;15.00;;;12.43;;
2720;SDS011;1368;49.484;11.112;2023-08-24T01:24:31;14.40;;;12.90;;
2720;SDS011;1368;49.484;11.112;2023-08-24T01:27:04;15.23;;;12.00;;
2720;SDS011;1368;49.484;11.112;2023-08-24T01:29:30;15.90;;;12.90;;
2720;SDS011;1368;49.484;11.112;2023-08-24T01:31:57;18.63;;;12.37;;
2720;SDS011;1368;49.484;11.112;2023-08-24T01:34:22;13.30;;;11.93;;
2720;SDS011;1368;49.484;11.112;2023-08-24T01:36:48;14.53;;;13.03;;
2720;SDS011;1368;49.484;11.112;2023-08-24T01:39:36;14.20;;;12.30;;
2720;SDS011;1368;49.484;11.112;2023-08-24T01:42:17;13.00;;;11.80;;
2720;SDS011;1368;49.484;11.112;2023-08-24T01:44:47;13.03;;;11.67;;
2720;SDS011;1368;49.484;11.112;2023-08-24T01:47:15;14.10;;;12.90;;
2720;SDS011;1368;49.484;11.112;2023-08-24T01:49:42;15.87;;;13.10;;
2720;SDS011;1368;49.484;11.112;2023-08-24T01:52:09;13.47;;;12.27;;
2720;SDS011;1368;49.484;11.112;2023-08-24T01:54:35;14.57;;;12.93;;
2720;SDS011;1368;49.484;11.112;2023-08-24T01:57:02;21.93;;;11.97;;
2720;SDS011;1368;49.484;11.112;2023-08-24T01:59:30;14.13;;;12.70;;
2720;SDS011;1368;49.484;11.112;2023-08-24T02:01:56;13.23;;;12.03;;
2720;SDS011;1368;49.484;11.112;2023-08-24T02:04:22;15.63;;;12.63;;
2720;SDS011;1368;49.484;11.112;2023-08-24T02:06:48;13.43;;;12.03;;
2720;SDS011;1368;49.484;11.112;2023-08-24T02:09:13;13.73;;;12.30;;
2720;SDS011;1368;49.484;11.112;2023-08-24T02:11:39;15.03;;;12.20;;
2720;SDS011;1368;49.484;11.112;2023-08-24T02:14:04;16.30;;;13.40;;
2720;SDS011;1368;49.484;11.112;2023-08-24T02:16:30;18.07;;;13.43;;
2720;SDS011;1368;49.484;11.112;2023-08-24T02:18:55;13.93;;;12.67;;
2720;SDS011;1368;49.484;11.112;2023-08-24T02:21:21;13.90;;;12.43;;
2720;SDS011;1368;49.484;11.112;2023-08-24T02:23:46;15.83;;;14.13;;
2720;SDS011;1368;49.484;11.112;2023-08-24T02:26:12;16.93;;;13.90;;
2720;SDS011;1368;49.484;11.112;2023-08-24T02:28:37;15.70;;;14.10;;
2720;SDS011;1368;49.484;11.112;2023-08-24T02:31:03;15.53;;;13.50;;
2720;SDS011;1368;49.484;11.112;2023-08-24T02:33:30;14.60;;;12.87;;
2720;SDS011;1368;49.484;11.112;2023-08-24T02:35:56;20.27;;;14.13;;
2720;SDS011;1368;49.484;11.112;2023-08-24T02:38:23;14.80;;;13.23;;
2720;SDS011;1368;49.484;11.112;2023-08-24T02:40:49;14.70;;;13.17;;
2720;SDS011;1368;49.484;11.112;2023-08-24T02:43:14;14.13;;;12.83;;
2720;SDS011;1368;49.484;11.112;2023-08-24T02:45:40;14.67;;;13.27;;
2720;SDS011;1368;49.484;11.112;2023-08-24T02:48:05;18.87;;;12.83;;
2720;SDS011;1368;49.484;11.112;2023-08-24T02:50:31;14.10;;;12.70;;
2720;SDS011;1368;49.484;11.112;2023-08-24T02:52:56;14.77;;;13.30;;
2720;SDS011;1368;49.484;11.112;2023-08-24T02:55:23;15.50;;;14.00;;
2720;SDS011;1368;49.484;11.112;2023-08-24T02:57:49;16.20;;;14.00;;
2720;SDS011;1368;49.484;11.112;2023-08-24T03:00:15;15.10;;;13.60;;
2720;SDS011;1368;49.484;11.112;2023-08-24T03:02:42;22.53;;;15.00;;
2720;SDS011;1368;49.484;11.112;2023-08-24T03:05:07;15.43;;;13.80;;
2720;SDS011;1368;49.484;11.112;2023-08-24T03:07:33;14.17;;;12.77;;
2720;SDS011;1368;49.484;11.112;2023-08-24T03:09:58;23.97;;;13.10;;
2720;SDS011;1368;49.484;11.112;2023-08-24T03:12:24;15.20;;;13.67;;
2720;SDS011;1368;49.484;11.112;2023-08-24T03:14:52;15.53;;;13.93;;
2720;SDS011;1368;49.484;11.112;2023-08-24T03:17:19;23.47;;;13.57;;
2720;SDS011;1368;49.484;11.112;2023-08-24T03:19:44;16.33;;;14.23;;
2720;SDS011;1368;49.484;11.112;2023-08-24T03:22:10;14.23;;;12.87;;
2720;SDS011;1368;49.484;11.112;2023-08-24T03:24:35;15.00;;;13.40;;
2720;SDS011;1368;49.484;11.112;2023-08-24T03:27:01;15.17;;;13.30;;
2720;SDS011;1368;49.484;11.112;2023-08-24T03:29:27;16.93;;;13.87;;
2720;SDS011;1368;49.484;11.112;2023-08-24T03:31:53;15.20;;;13.60;;
2720;SDS011;1368;49.484;11.112;2023-08-24T03:34:18;15.23;;;13.17;;
2720;SDS011;1368;49.484;11.112;2023-08-24T03:36:45;15.53;;;13.93;;
2720;SDS011;1368;49.484;11.112;2023-08-24T03:39:12;18.57;;;12.90;;
2720;SDS011;1368;49.484;11.112;2023-08-24T03:41:40;17.53;;;12.83;;
2720;SDS011;1368;49.484;11.112;2023-08-24T03:44:06;14.33;;;12.83;;
2720;SDS011;1368;49.484;11.112;2023-08-24T03:46:31;13.27;;;11.97;;
2720;SDS011;1368;49.484;11.112;2023-08-24T03:48:57;13.87;;;12.37;;
2720;SDS011;1368;49.484;11.112;2023-08-24T03:51:22;18.67;;;13.50;;
2720;SDS011;1368;49.484;11.112;2023-08-24T03:53:48;14.50;;;13.00;;
2720;SDS011;1368;49.484;11.112;2023-08-24T03:56:13;12.93;;;11.63;;
2720;SDS011;1368;49.484;11.112;2023-08-24T03:58:39;13.23;;;12.00;;
2720;SDS011;1368;49.484;11.112;2023-08-24T04:01:04;14.10;;;12.80;;
2720;SDS011;1368;49.484;11.112;2023-08-24T04:03:34;13.63;;;12.33;;
2720;SDS011;1368;49.484;11.112;2023-08-24T04:06:00;14.73;;;13.20;;
2720;SDS011;1368;49.484;11.112;2023-08-24T04:08:25;15.77;;;13.17;;
2720;SDS011;1368;49.484;11.112;2023-08-24T04:10:51;14.00;;;12.70;;
2720;SDS011;1368;49.484;11.112;2023-08-24T04:13:16;14.40;;;13.00;;
2720;SDS011;1368;49.484;11.112;2023-08-24T04:15:42;13.87;;;12.40;;
2720;SDS011;1368;49.484;11.112;2023-08-24T04:18:07;14.07;;;12.70;;
2720;SDS011;1368;49.484;11.112;2023-08-24T04:20:33;12.47;;;11.30;;
2720;SDS011;1368;49.484;11.112;2023-08-24T04:22:58;12.80;;;11.60;;
2720;SDS011;1368;49.484;11.112;2023-08-24T04:25:24;14.07;;;12.57;;
2720;SDS011;1368;49.484;11.112;2023-08-24T04:27:49;13.80;;;12.50;;
2720;SDS011;1368;49.484;11.112;2023-08-24T04:30:15;14.00;;;12.60;;
2720;SDS011;1368;49.484;11.112;2023-08-24T04:32:40;13.30;;;11.17;;
2720;SDS011;1368;49.484;11.112;2023-08-24T04:35:06;17.50;;;13.50;;
2720;SDS011;1368;49.484;11.112;2023-08-24T04:37:33;13.97;;;12.53;;
2720;SDS011;1368;49.484;11.112;2023-08-24T04:39:58;14.03;;;11.90;;
2720;SDS011;1368;49.484;11.112;2023-08-24T04:42:24;13.23;;;11.73;;
2720;SDS011;1368;49.484;11.112;2023-08-24T04:44:50;13.70;;;12.33;;
2720;SDS011;1368;49.484;11.112;2023-08-24T04:47:16;16.83;;;11.93;;
2720;SDS011;1368;49.484;11.112;2023-08-24T04:49:41;13.63;;;11.97;;
2720;SDS011;1368;49.484;11.112;2023-08-24T04:52:07;13.63;;;11.87;;
2720;SDS011;1368;49.484;11.112;2023-08-24T04:54:33;21.93;;;9.70;;
2720;SDS011;1368;49.484;11.112;2023-08-24T04:56:59;11.67;;;10.43;;
2720;SDS011;1368;49.484;11.112;2023-08-24T04:59:24;14.73;;;9.90;;
2720;SDS011;1368;49.484;11.112;2023-08-24T05:01:50;10.97;;;9.93;;
2720;SDS011;1368;49.484;11.112;2023-08-24T05:04:15;12.80;;;8.90;;
2720;SDS011;1368;49.484;11.112;2023-08-24T05:06:41;12.30;;;9.83;;
2720;SDS011;1368;49.484;11.112;2023-08-24T05:09:07;9.50;;;8.70;;
2720;SDS011;1368;49.484;11.112;2023-08-24T05:11:33;14.43;;;10.10;;
2720;SDS011;1368;49.484;11.112;2023-08-24T05:13:58;13.43;;;8.57;;
2720;SDS011;1368;49.484;11.112;2023-08-24T05:16:24;13.77;;;8.90;;
2720;SDS011;1368;49.484;11.112;2023-08-24T05:18:50;10.33;;;8.07;;
2720;SDS011;1368;49.484;11.112;2023-08-24T05:21:15;12.57;;;8.80;;
2720;SDS011;1368;49.484;11.112;2023-08-24T05:23:41;9.57;;;8.10;;
2720;SDS011;1368;49.484;11.112;2023-08-24T05:26:07;12.43;;;8.33;;
2720;SDS011;1368;49.484;11.112;2023-08-24T05:28:32;11.77;;;7.83;;
2720;SDS011;1368;49.484;11.112;2023-08-24T05:30:58;10.60;;;6.53;;
2720;SDS011;1368;49.484;11.112;2023-08-24T05:33:24;10.30;;;7.60;;
2720;SDS011;1368;49.484;11.112;2023-08-24T05:35:51;8.20;;;7.40;;
2720;SDS011;1368;49.484;11.112;2023-08-24T05:38:17;10.60;;;7.03;;
2720;SDS011;1368;49.484;11.112;2023-08-24T05:40:43;9.13;;;6.80;;
2720;SDS011;1368;49.484;11.112;2023-08-24T05:43:12;8.60;;;7.00;;
2720;SDS011;1368;49.484;11.112;2023-08-24T05:45:37;10.03;;;7.20;;
2720;SDS011;1368;49.484;11.112;2023-08-24T05:48:05;7.27;;;6.53;;
2720;SDS011;1368;49.484;11.112;2023-08-24T05:50:31;6.90;;;5.60;;
2720;SDS011;1368;49.484;11.112;2023-08-24T05:52:56;9.03;;;5.53;;
2720;SDS011;1368;49.484;11.112;2023-08-24T05:55:22;12.20;;;6.77;;
2720;SDS011;1368;49.484;11.112;2023-08-24T05:57:47;9.70;;;5.77;;
2720;SDS011;1368;49.484;11.112;2023-08-24T06:00:13;9.03;;;6.17;;
2720;SDS011;1368;49.484;11.112;2023-08-24T06:02:39;8.00;;;5.80;;
2720;SDS011;1368;49.484;11.112;2023-08-24T06:05:05;11.83;;;4.90;;
2720;SDS011;1368;49.484;11.112;2023-08-24T06:07:32;9.73;;;6.10;;
2720;SDS011;1368;49.484;11.112;2023-08-24T06:09:58;13.33;;;7.50;;
2720;SDS011;1368;49.484;11.112;2023-08-24T06:12:23;11.93;;;6.80;;
2720;SDS011;1368;49.484;11.112;2023-08-24T06:14:49;7.73;;;5.90;;
2720;SDS011;1368;49.484;11.112;2023-08-24T06:17:15;9.03;;;6.50;;
2720;SDS011;1368;49.484;11.112;2023-08-24T06:19:40;9.80;;;6.70;;
2720;SDS011;1368;49.484;11.112;2023-08-24T06:22:06;10.33;;;7.70;;
2720;SDS011;1368;49.484;11.112;2023-08-24T06:24:32;8.40;;;7.50;;
2720;SDS011;1368;49.484;11.112;2023-08-24T06:26:58;11.90;;;7.03;;
2720;SDS011;1368;49.484;11.112;2023-08-24T06:29:23;12.73;;;7.40;;
2720;SDS011;1368;49.484;11.112;2023-08-24T06:31:49;10.20;;;7.03;;
2720;SDS011;1368;49.484;11.112;2023-08-24T06:34:15;16.00;;;7.37;;
2720;SDS011;1368;49.484;11.112;2023-08-24T06:36:40;10.07;;;7.47;;
2720;SDS011;1368;49.484;11.112;2023-08-24T06:39:06;9.93;;;8.00;;
2720;SDS011;1368;49.484;11.112;2023-08-24T06:41:34;10.07;;;8.33;;
2720;SDS011;1368;49.484;11.112;2023-08-24T06:44:00;12.17;;;7.43;;
2720;SDS011;1368;49.484;11.112;2023-08-24T06:46:26;11.37;;;7.93;;
2720;SDS011;1368;49.484;11.112;2023-08-24T06:48:52;10.00;;;8.30;;
2720;SDS011;1368;49.484;11.112;2023-08-24T06:51:17;7.53;;;6.60;;
2720;SDS011;1368;49.484;11.112;2023-08-24T06:53:43;7.97;;;6.73;;
2720;SDS011;1368;49.484;11.112;2023-08-24T06:56:08;7.77;;;7.03;;
2720;SDS011;1368;49.484;11.112;2023-08-24T06:58:35;11.27;;;7.40;;
2720;SDS011;1368;49.484;11.112;2023-08-24T07:01:01;9.93;;;6.13;;
2720;SDS011;1368;49.484;11.112;2023-08-24T07:03:30;8.53;;;6.47;;
2720;SDS011;1368;49.484;11.112;2023-08-24T07:05:57;6.40;;;5.80;;
2720;SDS011;1368;49.484;11.112;2023-08-24T07:08:23;7.23;;;5.90;;
2720;SDS011;1368;49.484;11.112;2023-08-24T07:10:48;6.43;;;5.40;;
2720;SDS011;1368;49.484;11.112;2023-08-24T07:13:14;10.10;;;5.90;;
2720;SDS011;1368;49.484;11.112;2023-08-24T07:15:39;14.40;;;6.90;;
2720;SDS011;1368;49.484;11.112;2023-08-24T07:18:05;8.23;;;6.87;;
2720;SDS011;1368;49.484;11.112;2023-08-24T07:20:32;11.00;;;7.13;;
2720;SDS011;1368;49.484;11.112;2023-08-24T07:22:59;7.03;;;5.70;;
2720;SDS011;1368;49.484;11.112;2023-08-24T07:25:25;10.73;;;7.13;;
2720;SDS011;1368;49.484;11.112;2023-08-24T07:27:52;10.27;;;6.40;;
2720;SDS011;1368;49.484;11.112;2023-08-24T07:30:23;14.83;;;7.50;;
2720;SDS011;1368;49.484;11.112;2023-08-24T07:32:49;9.50;;;6.87;;
2720;SDS011;1368;49.484;11.112;2023-08-24T07:35:14;9.73;;;5.87;;
2720;SDS011;1368;49.484;11.112;2023-08-24T07:37:41;9.23;;;6.40;;
2720;SDS011;1368;49.484;11.112;2023-08-24T07:40:06;8.00;;;5.40;;
2720;SDS011;1368;49.484;11.112;2023-08-24T07:42:42;9.93;;;6.03;;
2720;SDS011;1368;49.484;11.112;2023-08-24T07:45:12;7.20;;;5.73;;
2720;SDS011;1368;49.484;11.112;2023-08-24T07:47:39;11.27;;;6.40;;
2720;SDS011;1368;49.484;11.112;2023-08-24T07:50:05;8.10;;;5.27;;
2720;SDS011;1368;49.484;11.112;2023-08-24T07:52:32;7.17;;;5.43;;
2720;SDS011;1368;49.484;11.112;2023-08-24T07:54:57;15.97;;;6.10;;
2720;SDS011;1368;49.484;11.112;2023-08-24T07:57:25;8.03;;;4.80;;
2720;SDS011;1368;49.484;11.112;2023-08-24T07:59:54;6.80;;;5.90;;
2720;SDS011;1368;49.484;11.112;2023-08-24T08:02:19;8.03;;;5.40;;
2720;SDS011;1368;49.484;11.112;2023-08-24T08:04:45;8.80;;;5.40;;
2720;SDS011;1368;49.484;11.112;2023-08-24T08:07:11;8.93;;;5.90;;
2720;SDS011;1368;49.484;11.112;2023-08-24T08:09:37;6.40;;;5.80;;
2720;SDS011;1368;49.484;11.112;2023-08-24T08:12:03;5.73;;;4.90;;
2720;SDS011;1368;49.484;11.112;2023-08-24T08:14:29;7.80;;;5.67;;
2720;SDS011;1368;49.484;11.112;2023-08-24T08:16:55;6.63;;;5.30;;
2720;SDS011;1368;49.484;11.112;2023-08-24T08:19:22;6.47;;;5.40;;
2720;SDS011;1368;49.484;11.112;2023-08-24T08:21:50;8.10;;;4.60;;
2720;SDS011;1368;49.484;11.112;2023-08-24T08:24:16;8.20;;;4.90;;
2720;SDS011;1368;49.484;11.112;2023-08-24T08:26:42;8.40;;;4.80;;
2720;SDS011;1368;49.484;11.112;2023-08-24T08:29:07;5.00;;;3.80;;
2720;SDS011;1368;49.484;11.112;2023-08-24T08:31:33;6.93;;;4.27;;
2720;SDS011;1368;49.484;11.112;2023-08-24T08:33:58;7.70;;;4.93;;
2720;SDS011;1368;49.484;11.112;2023-08-24T08:36:24;4.53;;;4.13;;
2720;SDS011;1368;49.484;11.112;2023-08-24T08:38:49;6.20;;;4.33;;
2720;SDS011;1368;49.484;11.112;2023-08-24T08:41:15;4.93;;;4.40;;
2720;SDS011;1368;49.484;11.112;2023-08-24T08:43:46;9.80;;;5.00;;
2720;SDS011;1368;49.484;11.112;2023-08-24T08:46:13;5.20;;;3.70;;
2720;SDS011;1368;49.484;11.112;2023-08-24T08:48:41;6.07;;;4.20;;
2720;SDS011;1368;49.484;11.112;2023-08-24T08:51:07;6.07;;;4.00;;
2720;SDS011;1368;49.484;11.112;2023-08-24T08:53:33;5.10;;;4.07;;
2720;SDS011;1368;49.484;11.112;2023-08-24T08:55:59;6.63;;;4.80;;
2720;SDS011;1368;49.484;11.112;2023-08-24T08:58:29;6.97;;;4.23;;
2720;SDS011;1368;49.484;11.112;2023-08-24T09:00:56;4.87;;;4.00;;
2720;SDS011;1368;49.484;11.112;2023-08-24T09:03:25;4.67;;;4.10;;
2720;SDS011;1368;49.484;11.112;2023-08-24T09:05:53;7.33;;;4.07;;
2720;SDS011;1368;49.484;11.112;2023-08-24T09:08:18;4.83;;;4.10;;
2720;SDS011;1368;49.484;11.112;2023-08-24T09:10:45;6.70;;;3.60;;
2720;SDS011;1368;49.484;11.112;2023-08-24T09:13:11;7.20;;;3.60;;
2720;SDS011;1368;49.484;11.112;2023-08-24T09:15:37;5.10;;;4.37;;
2720;SDS011;1368;49.484;11.112;2023-08-24T09:18:03;7.10;;;4.37;;
2720;SDS011;1368;49.484;11.112;2023-08-24T09:20:29;7.10;;;4.60;;
2720;SDS011;1368;49.484;11.112;2023-08-24T09:22:55;5.50;;;3.73;;
2720;SDS011;1368;49.484;11.112;2023-08-24T09:25:22;4.80;;;3.50;;
2720;SDS011;1368;49.484;11.112;2023-08-24T09:27:58;7.70;;;4.03;;
2720;SDS011;1368;49.484;11.112;2023-08-24T09:30:31;7.10;;;5.00;;
2720;SDS011;1368;49.484;11.112;2023-08-24T09:33:12;5.63;;;4.40;;
2720;SDS011;1368;49.484;11.112;2023-08-24T09:35:38;8.73;;;4.30;;
2720;SDS011;1368;49.484;11.112;2023-08-24T09:40:45;6.67;;;3.83;;
2720;SDS011;1368;49.484;11.112;2023-08-24T09:43:12;6.50;;;3.50;;
2720;SDS011;1368;49.484;11.112;2023-08-24T09:45:38;7.00;;;4.17;;
2720;SDS011;1368;49.484;11.112;2023-08-24T09:48:14;5.33;;;3.70;;
2720;SDS011;1368;49.484;11.112;2023-08-24T09:50:39;5.63;;;4.37;;
2720;SDS011;1368;49.484;11.112;2023-08-24T09:53:06;5.00;;;3.70;;
2720;SDS011;1368;49.484;11.112;2023-08-24T09:55:36;6.40;;;3.70;;
2720;SDS011;1368;49.484;11.112;2023-08-24T09:58:04;5.70;;;3.87;;
2720;SDS011;1368;49.484;11.112;2023-08-24T10:00:34;6.30;;;3.40;;
2720;SDS011;1368;49.484;11.112;2023-08-24T10:03:02;5.30;;;3.87;;
2720;SDS011;1368;49.484;11.112;2023-08-24T10:05:28;7.40;;;3.80;;
2720;SDS011;1368;49.484;11.112;2023-08-24T10:07:56;8.00;;;3.77;;
2720;SDS011;1368;49.484;11.112;2023-08-24T10:10:24;5.40;;;3.40;;
2720;SDS011;1368;49.484;11.112;2023-08-24T10:12:51;6.43;;;2.97;;
2720;SDS011;1368;49.484;11.112;2023-08-24T10:15:30;8.57;;;4.27;;
2720;SDS011;1368;49.484;11.112;2023-08-24T10:17:57;7.50;;;4.20;;
2720;SDS011;1368;49.484;11.112;2023-08-24T10:20:23;8.50;;;4.13;;
2720;SDS011;1368;49.484;11.112;2023-08-24T10:22:49;4.63;;;3.37;;
2720;SDS011;1368;49.484;11.112;2023-08-24T10:25:16;8.77;;;4.27;;
2720;SDS011;1368;49.484;11.112;2023-08-24T10:27:45;6.90;;;3.90;;
2720;SDS011;1368;49.484;11.112;2023-08-24T10:30:13;4.47;;;3.87;;
2720;SDS011;1368;49.484;11.112;2023-08-24T10:32:40;6.22;;;3.70;;
2720;SDS011;1368;49.484;11.112;2023-08-24T10:35:07;7.47;;;4.27;;
2720;SDS011;1368;49.484;11.112;2023-08-24T10:37:33;6.07;;;4.00;;
2720;SDS011;1368;49.484;11.112;2023-08-24T10:39:59;7.67;;;3.80;;
2720;SDS011;1368;49.484;11.112;2023-08-24T10:42:25;9.50;;;4.20;;
2720;SDS011;1368;49.484;11.112;2023-08-24T10:44:51;7.97;;;4.10;;
2720;SDS011;1368;49.484;11.112;2023-08-24T10:49:57;6.57;;;4.00;;
2720;SDS011;1368;49.484;11.112;2023-08-24T10:52:25;9.20;;;4.70;;
2720;SDS011;1368;49.484;11.112;2023-08-24T10:54:59;5.60;;;4.00;;
2720;SDS011;1368;49.484;11.112;2023-08-24T10:57:35;6.27;;;3.73;;
2720;SDS011;1368;49.484;11.112;2023-08-24T11:00:11;8.13;;;4.10;;
2720;SDS011;1368;49.484;11.112;2023-08-24T11:02:44;8.50;;;3.70;;
2720;SDS011;1368;49.484;11.112;2023-08-24T11:07:58;5.00;;;3.80;;
2720;SDS011;1368;49.484;11.112;2023-08-24T11:10:31;8.80;;;4.60;;
2720;SDS011;1368;49.484;11.112;2023-08-24T11:15:37;5.37;;;4.07;;
2720;SDS011;1368;49.484;11.112;2023-08-24T11:20:54;5.43;;;3.83;;
2720;SDS011;1368;49.484;11.112;2023-08-24T11:23:20;7.93;;;3.83;;
2720;SDS011;1368;49.484;11.112;2023-08-24T11:25:48;10.53;;;4.27;;
2720;SDS011;1368;49.484;11.112;2023-08-24T11:28:16;5.70;;;4.60;;
2720;SDS011;1368;49.484;11.112;2023-08-24T11:30:44;5.00;;;4.20;;
2720;SDS011;1368;49.484;11.112;2023-08-24T11:33:10;5.20;;;4.23;;
2720;SDS011;1368;49.484;11.112;2023-08-24T11:35:39;8.87;;;4.47;;
2720;SDS011;1368;49.484;11.112;2023-08-24T11:38:08;8.30;;;4.53;;
2720;SDS011;1368;49.484;11.112;2023-08-24T11:40:34;6.47;;;4.40;;
2720;SDS011;1368;49.484;11.112;2023-08-24T11:42:59;8.20;;;4.40;;
2720;SDS011;1368;49.484;11.112;2023-08-24T11:45:32;9.67;;;4.60;;
2720;SDS011;1368;49.484;11.112;2023-08-24T11:47:59;6.60;;;4.33;;
2720;SDS011;1368;49.484;11.112;2023-08-24T11:50:29;6.80;;;4.90;;
2720;SDS011;1368;49.484;11.112;2023-08-24T11:52:55;6.80;;;4.90;;
2720;SDS011;1368;49.484;11.112;2023-08-24T11:55:24;6.60;;;5.10;;
2720;SDS011;1368;49.484;11.112;2023-08-24T11:57:50;4.97;;;4.47;;
2720;SDS011;1368;49.484;11.112;2023-08-24T12:00:17;6.00;;;4.60;;
2720;SDS011;1368;49.484;11.112;2023-08-24T12:02:45;6.77;;;4.07;;
2720;SDS011;1368;49.484;11.112;2023-08-24T12:05:24;5.33;;;4.40;;
2720;SDS011;1368;49.484;11.112;2023-08-24T12:07:53;6.57;;;5.30;;
2720;SDS011;1368;49.484;11.112;2023-08-24T12:10:20;6.13;;;4.10;;
2720;SDS011;1368;49.484;11.112;2023-08-24T12:12:46;7.87;;;4.40;;
2720;SDS011;1368;49.484;11.112;2023-08-24T12:15:15;6.33;;;4.70;;
2720;SDS011;1368;49.484;11.112;2023-08-24T12:17:43;7.80;;;4.57;;
2720;SDS011;1368;49.484;11.112;2023-08-24T12:20:16;10.00;;;4.53;;
2720;SDS011;1368;49.484;11.112;2023-08-24T12:22:54;5.90;;;4.40;;
2720;SDS011;1368;49.484;11.112;2023-08-24T12:25:23;4.93;;;4.00;;
2720;SDS011;1368;49.484;11.112;2023-08-24T12:27:52;8.30;;;4.60;;
2720;SDS011;1368;49.484;11.112;2023-08-24T12:30:42;6.20;;;5.00;;
2720;SDS011;1368;49.484;11.112;2023-08-24T12:33:24;7.17;;;4.57;;
2720;SDS011;1368;49.484;11.112;2023-08-24T12:35:51;7.30;;;4.77;;
2720;SDS011;1368;49.484;11.112;2023-08-24T12:38:18;10.27;;;5.20;;
2720;SDS011;1368;49.484;11.112;2023-08-24T12:40:44;9.27;;;4.90;;
2720;SDS011;1368;49.484;11.112;2023-08-24T12:43:09;6.60;;;5.00;;
2720;SDS011;1368;49.484;11.112;2023-08-24T12:45:35;7.33;;;4.10;;
2720;SDS011;1368;49.484;11.112;2023-08-24T12:48:02;7.00;;;5.10;;
2720;SDS011;1368;49.484;11.112;2023-08-24T12:50:29;7.37;;;4.87;;
2720;SDS011;1368;49.484;11.112;2023-08-24T12:52:54;12.40;;;4.67;;
2720;SDS011;1368;49.484;11.112;2023-08-24T12:55:24;8.87;;;4.60;;
2720;SDS011;1368;49.484;11.112;2023-08-24T12:57:50;7.30;;;4.33;;
2720;SDS011;1368;49.484;11.112;2023-08-24T13:00:15;8.87;;;4.40;;
2720;SDS011;1368;49.484;11.112;2023-08-24T13:02:41;7.00;;;4.40;;
2720;SDS011;1368;49.484;11.112;2023-08-24T13:05:07;6.40;;;4.90;;
2720;SDS011;1368;49.484;11.112;2023-08-24T13:07:33;8.00;;;4.40;;
2720;SDS011;1368;49.484;11.112;2023-08-24T13:09:58;8.67;;;4.70;;
2720;SDS011;1368;49.484;11.112;2023-08-24T13:12:24;5.57;;;4.30;;
2720;SDS011;1368;49.484;11.112;2023-08-24T13:14:50;7.67;;;4.07;;
2720;SDS011;1368;49.484;11.112;2023-08-24T13:17:15;8.60;;;4.57;;
2720;SDS011;1368;49.484;11.112;2023-08-24T13:19:41;8.73;;;4.20;;
2720;SDS011;1368;49.484;11.112;2023-08-24T13:22:07;7.80;;;4.63;;
2720;SDS011;1368;49.484;11.112;2023-08-24T13:24:33;6.60;;;4.80;;
2720;SDS011;1368;49.484;11.112;2023-08-24T13:26:59;6.60;;;4.83;;
2720;SDS011;1368;49.484;11.112;2023-08-24T13:29:24;6.17;;;4.13;;
2720;SDS011;1368;49.484;11.112;2023-08-24T13:31:50;7.30;;;4.40;;
2720;SDS011;1368;49.484;11.112;2023-08-24T13:34:16;11.93;;;5.67;;
2720;SDS011;1368;49.484;11.112;2023-08-24T13:36:42;6.33;;;4.70;;
2720;SDS011;1368;49.484;11.112;2023-08-24T13:39:07;7.60;;;4.60;;
2720;SDS011;1368;49.484;11.112;2023-08-24T13:41:33;11.17;;;4.93;;
2720;SDS011;1368;49.484;11.112;2023-08-24T13:43:59;8.23;;;5.10;;
2720;SDS011;1368;49.484;11.112;2023-08-24T13:46:24;8.47;;;4.83;;
2720;SDS011;1368;49.484;11.112;2023-08-24T13:48:50;7.67;;;4.30;;
2720;SDS011;1368;49.484;11.112;2023-08-24T13:51:16;8.00;;;4.97;;
2720;SDS011;1368;49.484;11.112;2023-08-24T13:53:41;9.63;;;4.33;;
2720;SDS011;1368;49.484;11.112;2023-08-24T13:56:07;9.50;;;4.23;;
2720;SDS011;1368;49.484;11.112;2023-08-24T13:58:32;10.77;;;4.60;;
2720;SDS011;1368;49.484;11.112;2023-08-24T14:00:58;7.50;;;4.87;;
2720;SDS011;1368;49.484;11.112;2023-08-24T14:03:23;7.40;;;5.00;;
2720;SDS011;1368;49.484;11.112;2023-08-24T14:05:49;13.67;;;5.23;;
2720;SDS011;1368;49.484;11.112;2023-08-24T14:08:19;6.53;;;4.27;;
2720;SDS011;1368;49.484;11.112;2023-08-24T14:10:45;6.27;;;4.50;;
2720;SDS011;1368;49.484;11.112;2023-08-24T14:13:13;8.23;;;4.80;;
2720;SDS011;1368;49.484;11.112;2023-08-24T14:15:39;10.70;;;4.73;;
2720;SDS011;1368;49.484;11.112;2023-08-24T14:18:05;7.90;;;5.10;;
2720;SDS011;1368;49.484;11.112;2023-08-24T14:20:30;5.63;;;4.67;;
2720;SDS011;1368;49.484;11.112;2023-08-24T14:22:56;10.53;;;5.57;;
2720;SDS011;1368;49.484;11.112;2023-08-24T14:25:22;8.50;;;5.33;;
2720;SDS011;1368;49.484;11.112;2023-08-24T14:27:47;8.90;;;4.80;;
2720;SDS011;1368;49.484;11.112;2023-08-24T14:30:13;6.47;;;4.97;;
2720;SDS011;1368;49.484;11.112;2023-08-24T14:32:39;8.87;;;4.97;;
2720;SDS011;1368;49.484;11.112;2023-08-24T14:35:05;8.47;;;4.83;;
2720;SDS011;1368;49.484;11.112;2023-08-24T14:37:31;16.17;;;5.43;;
2720;SDS011;1368;49.484;11.112;2023-08-24T14:39:58;6.53;;;4.40;;
2720;SDS011;1368;49.484;11.112;2023-08-24T14:42:24;7.00;;;4.77;;
2720;SDS011;1368;49.484;11.112;2023-08-24T14:44:49;9.00;;;5.40;;
2720;SDS011;1368;49.484;11.112;2023-08-24T14:47:15;8.97;;;4.93;;
2720;SDS011;1368;49.484;11.112;2023-08-24T14:49:40;10.30;;;4.63;;
2720;SDS011;1368;49.484;11.112;2023-08-24T14:52:06;7.00;;;4.97;;
2720;SDS011;1368;49.484;11.112;2023-08-24T14:54:32;6.90;;;4.63;;
2720;SDS011;1368;49.484;11.112;2023-08-24T14:56:57;6.27;;;5.03;;
2720;SDS011;1368;49.484;11.112;2023-08-24T14:59:24;8.80;;;5.30;;
2720;SDS011;1368;49.484;11.112;2023-08-24T15:01:50;9.17;;;5.33;;
2720;SDS011;1368;49.484;11.112;2023-08-24T15:04:15;11.10;;;5.73;;